createdAt,value
2018-03-23T00:00:05.226Z,2
2018-03-23T00:05:02.745Z,0
2018-03-23T00:10:03.315Z,1
2018-03-23T00:15:02.849Z,0
2018-03-23T00:20:03.432Z,0
2018-03-23T00:25:02.969Z,0
2018-03-23T00:30:03.596Z,0
2018-03-23T00:35:03.229Z,0
2018-03-23T00:40:02.770Z,0
2018-03-23T00:45:03.362Z,2
2018-03-23T00:50:02.926Z,0
2018-03-23T00:55:03.435Z,0
2018-03-23T01:00:02.967Z,0
2018-03-23T01:05:03.349Z,1
2018-03-23T01:10:02.921Z,3
2018-03-23T01:15:03.386Z,1
2018-03-23T01:20:02.937Z,2
2018-03-23T01:25:03.510Z,3
2018-03-23T01:30:03.030Z,3
2018-03-23T01:35:02.656Z,0
2018-03-23T01:40:03.248Z,0
2018-03-23T01:45:02.761Z,2
2018-03-23T01:50:03.387Z,2
2018-03-23T01:55:02.926Z,2
2018-03-23T02:00:03.454Z,2
2018-03-23T02:05:02.953Z,2
2018-03-23T02:10:03.470Z,0
2018-03-23T02:15:02.969Z,3
2018-03-23T02:20:03.556Z,0
2018-03-23T02:25:03.136Z,1
2018-03-23T02:30:02.726Z,0
2018-03-23T02:35:03.276Z,0
2018-03-23T02:40:03.283Z,0
2018-03-23T02:45:02.784Z,1
2018-03-23T02:50:03.473Z,0
2018-03-23T02:55:03.194Z,0
2018-03-23T03:00:02.785Z,1
2018-03-23T03:05:03.323Z,0
2018-03-23T03:10:02.839Z,1
2018-03-23T03:15:03.505Z,0
2018-03-23T03:20:03.113Z,1
2018-03-23T03:25:03.600Z,2
2018-03-23T03:30:03.163Z,0
2018-03-23T03:35:02.727Z,1
2018-03-23T03:40:03.288Z,2
2018-03-23T03:45:02.858Z,1
2018-03-23T03:50:03.421Z,3
2018-03-23T03:55:02.928Z,0
2018-03-23T04:00:03.771Z,1
2018-03-23T04:05:03.343Z,2
2018-03-23T04:10:03.007Z,0
2018-03-23T04:15:03.594Z,0
2018-03-23T04:20:03.109Z,0
2018-03-23T04:25:02.641Z,1
2018-03-23T04:30:03.184Z,0
2018-03-23T04:35:02.751Z,1
2018-03-23T04:40:03.330Z,2
2018-03-23T04:45:02.894Z,1
2018-03-23T04:50:03.480Z,2
2018-03-23T04:55:02.926Z,3
2018-03-23T05:00:03.468Z,3
2018-03-23T05:05:02.973Z,2
2018-03-23T05:10:03.592Z,0
2018-03-23T05:15:03.132Z,1
2018-03-23T05:20:02.599Z,2
2018-03-23T05:25:03.136Z,0
2018-03-23T05:30:02.694Z,0
2018-03-23T05:35:03.183Z,2
2018-03-23T05:40:02.847Z,2
2018-03-23T05:45:03.382Z,4
2018-03-23T05:50:02.946Z,3
2018-03-23T05:55:03.444Z,5
2018-03-23T06:00:02.882Z,3
2018-03-23T06:05:03.446Z,4
2018-03-23T06:10:03.115Z,3
2018-03-23T06:15:02.676Z,3
2018-03-23T06:20:03.267Z,3
2018-03-23T06:25:02.818Z,5
2018-03-23T06:30:03.425Z,5
2018-03-23T06:35:02.948Z,4
2018-03-23T06:40:03.560Z,4
2018-03-23T06:45:03.125Z,3
2018-03-23T06:50:02.674Z,5
2018-03-23T06:55:03.234Z,7
2018-03-23T07:00:03.127Z,3
2018-03-23T07:05:02.669Z,4
2018-03-23T07:10:03.248Z,5
2018-03-23T07:15:02.839Z,4
2018-03-23T07:20:03.311Z,6
2018-03-23T07:25:02.870Z,4
2018-03-23T07:30:03.418Z,3
2018-03-23T07:35:02.886Z,6
2018-03-23T07:40:03.538Z,4
2018-03-23T07:45:03.124Z,5
2018-03-23T07:50:02.688Z,3
2018-03-23T07:55:03.238Z,6
2018-03-23T08:00:03.054Z,4
2018-03-23T08:05:03.577Z,5
2018-03-23T08:10:03.119Z,6
2018-03-23T08:15:02.702Z,5
2018-03-23T08:20:03.192Z,7
2018-03-23T08:25:02.785Z,6
2018-03-23T08:30:03.507Z,5
2018-03-23T08:35:03.101Z,4
2018-03-23T08:40:02.691Z,6
2018-03-23T08:45:03.263Z,7
2018-03-23T08:50:02.894Z,3
2018-03-23T08:55:03.513Z,5
2018-03-23T09:00:03.002Z,7
2018-03-23T09:05:03.550Z,7
2018-03-23T09:10:03.193Z,5
2018-03-23T09:15:02.774Z,7
2018-03-23T09:20:03.314Z,5
2018-03-23T09:25:02.821Z,4
2018-03-23T09:30:03.364Z,6
2018-03-23T09:35:02.903Z,6
2018-03-23T09:40:03.556Z,4
2018-03-23T09:45:03.103Z,8
2018-03-23T09:50:02.701Z,8
2018-03-23T09:55:03.247Z,6
2018-03-23T10:00:02.823Z,7
2018-03-23T10:05:03.393Z,6
2018-03-23T10:10:03.100Z,12
2018-03-23T10:15:02.577Z,5
2018-03-23T10:20:03.171Z,14
2018-03-23T10:25:02.926Z,12
2018-03-23T10:30:03.509Z,6
2018-03-23T10:35:03.145Z,6
2018-03-23T10:40:02.764Z,5
2018-03-23T10:45:03.350Z,11
2018-03-23T10:50:02.970Z,10
2018-03-23T10:55:03.553Z,7
2018-03-23T11:00:03.047Z,7
2018-03-23T11:05:02.733Z,12
2018-03-23T11:10:03.378Z,9
2018-03-23T11:15:02.925Z,6
2018-03-23T11:20:03.486Z,8
2018-03-23T11:25:03.009Z,9
2018-03-23T11:30:03.548Z,9
2018-03-23T11:35:02.974Z,6
2018-03-23T11:40:03.584Z,7
2018-03-23T11:45:03.168Z,6
2018-03-23T11:50:02.740Z,6
2018-03-23T11:55:03.283Z,7
2018-03-23T12:00:02.735Z,5
2018-03-23T12:05:03.279Z,6
2018-03-23T12:10:02.856Z,7
2018-03-23T12:15:03.496Z,7
2018-03-23T12:20:03.188Z,6
2018-03-23T12:25:02.732Z,7
2018-03-23T12:30:03.249Z,6
2018-03-23T12:35:02.816Z,6
2018-03-23T12:40:03.380Z,9
2018-03-23T12:45:02.931Z,11
2018-03-23T12:50:03.651Z,5
2018-03-23T12:55:03.311Z,8
2018-03-23T13:00:02.798Z,4
2018-03-23T13:05:03.297Z,9
2018-03-23T13:10:02.948Z,9
2018-03-23T13:15:03.533Z,10
2018-03-23T13:20:03.190Z,9
2018-03-23T13:25:02.717Z,8
2018-03-23T13:30:03.352Z,8
2018-03-23T13:35:02.964Z,5
2018-03-23T13:40:02.655Z,8
2018-03-23T13:45:03.298Z,6
2018-03-23T13:50:03.347Z,6
2018-03-23T13:55:02.977Z,5
2018-03-23T14:00:03.546Z,7
2018-03-23T14:05:03.030Z,9
2018-03-23T14:10:02.688Z,4
2018-03-23T14:15:03.249Z,5
2018-03-23T14:20:02.867Z,7
2018-03-23T14:25:03.504Z,7
2018-03-23T14:30:03.063Z,9
2018-03-23T14:35:02.752Z,7
2018-03-23T14:40:03.303Z,2
2018-03-23T14:45:02.796Z,6
2018-03-23T14:50:03.431Z,6
2018-03-23T14:55:02.977Z,7
2018-03-23T15:00:03.503Z,4
2018-03-23T15:05:03.036Z,3
2018-03-23T15:10:02.727Z,8
2018-03-23T15:15:03.326Z,8
2018-03-23T15:20:02.952Z,5
2018-03-23T15:25:03.543Z,6
2018-03-23T15:30:03.163Z,4
2018-03-23T15:35:02.722Z,4
2018-03-23T15:40:03.384Z,8
2018-03-23T15:45:02.895Z,4
2018-03-23T15:50:03.511Z,5
2018-03-23T15:55:03.141Z,4
2018-03-23T16:05:03.315Z,4
2018-03-23T16:10:03.242Z,3
2018-03-23T16:15:02.736Z,4
2018-03-23T16:20:03.398Z,7
2018-03-23T16:25:02.973Z,5
2018-03-23T16:30:03.552Z,6
2018-03-23T16:35:03.197Z,7
2018-03-23T16:40:02.791Z,7
2018-03-23T16:45:03.349Z,4
2018-03-23T16:50:02.865Z,3
2018-03-23T16:55:03.479Z,2
2018-03-23T17:00:03.060Z,4
2018-03-23T17:05:02.696Z,2
2018-03-23T17:10:03.415Z,2
2018-03-23T17:15:03.014Z,3
2018-03-23T17:20:03.585Z,3
2018-03-23T17:25:03.266Z,3
2018-03-23T17:30:02.809Z,3
2018-03-23T17:35:03.554Z,2
2018-03-23T17:40:03.149Z,2
2018-03-23T17:45:02.715Z,1
2018-03-23T17:50:03.367Z,3
2018-03-23T17:55:02.920Z,3
2018-03-23T18:00:03.512Z,3
2018-03-23T18:05:02.957Z,2
2018-03-23T18:10:02.641Z,0
2018-03-23T18:15:03.199Z,5
2018-03-23T18:20:02.888Z,2
2018-03-23T18:25:03.580Z,1
2018-03-23T18:30:03.176Z,2
2018-03-23T18:35:02.808Z,3
2018-03-23T18:40:03.423Z,3
2018-03-23T18:45:03.402Z,3
2018-03-23T18:50:02.962Z,1
2018-03-23T18:55:03.516Z,4
2018-03-23T19:00:03.015Z,4
2018-03-23T19:05:03.614Z,2
2018-03-23T19:10:03.327Z,3
2018-03-23T19:15:02.898Z,2
2018-03-23T19:20:03.538Z,2
2018-03-23T19:25:03.188Z,1
2018-03-23T19:30:02.693Z,2
2018-03-23T19:35:03.232Z,0
2018-03-23T19:40:02.908Z,2
2018-03-23T19:45:03.413Z,4
2018-03-23T19:50:02.985Z,3
2018-03-23T19:55:03.556Z,2
2018-03-23T20:00:03.082Z,4
2018-03-23T20:05:02.661Z,6
2018-03-23T20:10:03.362Z,3
2018-03-23T20:15:02.951Z,2
2018-03-23T20:20:03.566Z,3
2018-03-23T20:25:03.115Z,3
2018-03-23T20:30:02.672Z,3
2018-03-23T20:35:03.305Z,1
2018-03-23T20:40:02.945Z,3
2018-03-23T20:45:03.569Z,3
2018-03-23T20:50:03.288Z,2
2018-03-23T20:55:02.762Z,5
2018-03-23T21:00:03.390Z,2
2018-03-23T21:05:02.946Z,2
2018-03-23T21:10:02.624Z,1
2018-03-23T21:15:03.450Z,0
2018-03-23T21:20:03.206Z,1
2018-03-23T21:25:02.763Z,3
2018-03-23T21:30:03.320Z,2
2018-03-23T21:35:02.930Z,2
2018-03-23T21:40:03.590Z,3
2018-03-23T21:45:03.212Z,3
2018-03-23T21:50:02.782Z,3
2018-03-23T21:55:03.415Z,3
2018-03-23T22:00:03.004Z,4
2018-03-23T22:05:02.629Z,2
2018-03-23T22:10:03.284Z,2
2018-03-23T22:15:02.867Z,3
2018-03-23T22:20:03.499Z,3
2018-03-23T22:25:03.118Z,3
2018-03-23T22:30:03.811Z,2
2018-03-23T22:35:03.419Z,2
2018-03-23T22:40:03.006Z,2
2018-03-23T22:45:02.658Z,0
2018-03-23T22:50:03.214Z,2
2018-03-23T22:55:02.788Z,1
2018-03-23T23:00:03.374Z,0
2018-03-23T23:05:02.991Z,0
2018-03-23T23:10:02.641Z,0
2018-03-23T23:15:03.209Z,0
2018-03-23T23:20:02.894Z,0
2018-03-23T23:25:02.693Z,0
2018-03-23T23:30:03.252Z,0
2018-03-23T23:35:02.871Z,0
2018-03-23T23:40:03.470Z,0
2018-03-23T23:45:03.035Z,0
2018-03-23T23:50:02.661Z,0
2018-03-23T23:55:03.235Z,0
